sensor_id;sensor_type;location;lat;lon;timestamp;pressure;altitude;pressure_sealevel;temperature;humidity
44825;BME280;30542;47.928;2.138;2023-08-08T00:00:56;100734.88;;;22.21;47.09
44825;BME280;30542;47.928;2.138;2023-08-08T00:05:57;100726.03;;;22.20;47.21
44825;BME280;30542;47.928;2.138;2023-08-08T00:10:58;100716.09;;;22.21;47.14
44825;BME280;30542;47.928;2.138;2023-08-08T00:15:58;100704.56;;;22.20;47.30
44825;BME280;30542;47.928;2.138;2023-08-08T00:20:58;100703.75;;;22.20;47.07
44825;BME280;30542;47.928;2.138;2023-08-08T00:25:59;100702.69;;;22.16;47.22
44825;BME280;30542;47.928;2.138;2023-08-08T00:30:59;100694.09;;;22.19;47.17
44825;BME280;30542;47.928;2.138;2023-08-08T00:35:59;100704.56;;;22.20;47.43
44825;BME280;30542;47.928;2.138;2023-08-08T00:41:00;100695.97;;;22.18;47.29
44825;BME280;30542;47.928;2.138;2023-08-08T00:46:00;100690.59;;;22.18;47.40
44825;BME280;30542;47.928;2.138;2023-08-08T00:51:01;100681.75;;;22.18;47.38
44825;BME280;30542;47.928;2.138;2023-08-08T00:56:01;100674.50;;;22.18;47.43
44825;BME280;30542;47.928;2.138;2023-08-08T01:01:02;100659.47;;;22.12;47.38
44825;BME280;30542;47.928;2.138;2023-08-08T01:06:12;100673.69;;;22.18;47.34
44825;BME280;30542;47.928;2.138;2023-08-08T01:11:14;100666.44;;;22.18;47.39
44825;BME280;30542;47.928;2.138;2023-08-08T01:16:16;100656.00;;;22.17;47.34
44825;BME280;30542;47.928;2.138;2023-08-08T01:21:17;100666.72;;;22.17;47.44
44825;BME280;30542;47.928;2.138;2023-08-08T01:26:19;100661.38;;;22.17;47.60
44825;BME280;30542;47.928;2.138;2023-08-08T01:31:20;100662.97;;;22.18;47.41
44825;BME280;30542;47.928;2.138;2023-08-08T01:36:31;100664.03;;;22.17;47.51
44825;BME280;30542;47.928;2.138;2023-08-08T01:41:34;100663.53;;;22.15;47.56
44825;BME280;30542;47.928;2.138;2023-08-08T01:46:36;100661.66;;;22.15;47.34
44825;BME280;30542;47.928;2.138;2023-08-08T01:51:38;100668.34;;;22.18;47.46
44825;BME280;30542;47.928;2.138;2023-08-08T02:01:39;100669.94;;;22.14;47.26
44825;BME280;30542;47.928;2.138;2023-08-08T02:06:39;100669.41;;;22.17;47.59
44825;BME280;30542;47.928;2.138;2023-08-08T02:11:40;100674.78;;;22.17;47.66
44825;BME280;30542;47.928;2.138;2023-08-08T02:16:40;100664.56;;;22.14;47.68
44825;BME280;30542;47.928;2.138;2023-08-08T02:21:42;100658.38;;;22.08;47.53
44825;BME280;30542;47.928;2.138;2023-08-08T02:26:42;100674.25;;;22.15;47.76
44825;BME280;30542;47.928;2.138;2023-08-08T02:31:43;100667.78;;;22.11;47.69
44825;BME280;30542;47.928;2.138;2023-08-08T02:36:43;100672.88;;;22.12;47.68
44825;BME280;30542;47.928;2.138;2023-08-08T02:41:44;100666.97;;;22.10;47.59
44825;BME280;30542;47.928;2.138;2023-08-08T02:46:45;100669.41;;;22.12;47.73
44825;BME280;30542;47.928;2.138;2023-08-08T02:51:45;100669.41;;;22.12;47.86
44825;BME280;30542;47.928;2.138;2023-08-08T02:56:45;100672.06;;;22.12;47.66
44825;BME280;30542;47.928;2.138;2023-08-08T03:01:46;100671.28;;;22.11;47.82
44825;BME280;30542;47.928;2.138;2023-08-08T03:06:47;100666.97;;;22.10;47.72
44825;BME280;30542;47.928;2.138;2023-08-08T03:11:48;100675.56;;;22.07;47.69
44825;BME280;30542;47.928;2.138;2023-08-08T03:16:48;100672.88;;;22.07;47.73
44825;BME280;30542;47.928;2.138;2023-08-08T03:21:48;100666.72;;;22.06;47.79
44825;BME280;30542;47.928;2.138;2023-08-08T03:26:49;100669.41;;;22.06;47.93
44825;BME280;30542;47.928;2.138;2023-08-08T03:31:50;100668.56;;;22.06;47.93
44825;BME280;30542;47.928;2.138;2023-08-08T03:36:50;100660.53;;;22.06;47.63
44825;BME280;30542;47.928;2.138;2023-08-08T03:41:51;100660.53;;;22.06;47.66
44825;BME280;30542;47.928;2.138;2023-08-08T03:46:51;100650.06;;;22.04;47.96
44825;BME280;30542;47.928;2.138;2023-08-08T03:51:52;100654.34;;;22.05;47.82
44825;BME280;30542;47.928;2.138;2023-08-08T03:56:52;100658.13;;;22.04;47.75
44825;BME280;30542;47.928;2.138;2023-08-08T04:01:53;100650.06;;;22.04;47.69
44825;BME280;30542;47.928;2.138;2023-08-08T04:06:53;100644.72;;;22.04;47.79
44825;BME280;30542;47.928;2.138;2023-08-08T04:11:54;100649.00;;;22.05;47.70
44825;BME280;30542;47.928;2.138;2023-08-08T04:16:54;100649.00;;;22.05;47.74
44825;BME280;30542;47.928;2.138;2023-08-08T04:21:54;100651.16;;;22.03;47.68
44825;BME280;30542;47.928;2.138;2023-08-08T04:26:55;100646.31;;;22.00;47.94
44825;BME280;30542;47.928;2.138;2023-08-08T04:31:55;100649.56;;;22.02;47.91
44825;BME280;30542;47.928;2.138;2023-08-08T04:36:55;100643.91;;;22.04;48.46
44825;BME280;30542;47.928;2.138;2023-08-08T04:41:56;100651.16;;;22.03;48.51
44825;BME280;30542;47.928;2.138;2023-08-08T04:46:57;100658.13;;;22.04;48.78
44825;BME280;30542;47.928;2.138;2023-08-08T04:51:57;100662.69;;;22.04;48.78
44825;BME280;30542;47.928;2.138;2023-08-08T04:56:58;100656.53;;;21.98;48.92
44825;BME280;30542;47.928;2.138;2023-08-08T05:01:58;100669.94;;;22.03;48.49
44825;BME280;30542;47.928;2.138;2023-08-08T05:06:58;100653.84;;;21.98;48.42
44825;BME280;30542;47.928;2.138;2023-08-08T05:11:58;100668.06;;;21.99;48.52
44825;BME280;30542;47.928;2.138;2023-08-08T05:16:59;100662.41;;;21.95;48.58
44825;BME280;30542;47.928;2.138;2023-08-08T05:21:59;100673.94;;;21.96;48.92
44825;BME280;30542;47.928;2.138;2023-08-08T05:27:01;100663.75;;;21.93;49.08
44825;BME280;30542;47.928;2.138;2023-08-08T05:32:01;100675.28;;;21.88;49.31
44825;BME280;30542;47.928;2.138;2023-08-08T05:37:01;100667.25;;;21.83;49.19
44825;BME280;30542;47.928;2.138;2023-08-08T05:42:02;100676.88;;;21.89;49.13
44825;BME280;30542;47.928;2.138;2023-08-08T05:47:02;100674.75;;;21.86;49.28
44825;BME280;30542;47.928;2.138;2023-08-08T05:52:03;100665.63;;;21.87;49.16
44825;BME280;30542;47.928;2.138;2023-08-08T05:57:03;100665.63;;;21.87;49.25
44825;BME280;30542;47.928;2.138;2023-08-08T06:02:04;100668.31;;;21.87;49.34
44825;BME280;30542;47.928;2.138;2023-08-08T06:07:04;100683.59;;;21.87;49.19
44825;BME280;30542;47.928;2.138;2023-08-08T06:12:05;100680.66;;;21.88;49.26
44825;BME280;30542;47.928;2.138;2023-08-08T06:17:06;100687.91;;;21.88;49.12
44825;BME280;30542;47.928;2.138;2023-08-08T06:22:06;100689.25;;;21.90;48.95
44825;BME280;30542;47.928;2.138;2023-08-08T06:27:07;100684.13;;;21.89;48.94
44825;BME280;30542;47.928;2.138;2023-08-08T06:32:07;100682.25;;;21.89;49.19
44825;BME280;30542;47.928;2.138;2023-08-08T06:37:07;100689.25;;;21.95;49.48
44825;BME280;30542;47.928;2.138;2023-08-08T06:42:08;100691.94;;;21.95;49.56
44825;BME280;30542;47.928;2.138;2023-08-08T06:47:08;100678.50;;;21.95;49.75
44825;BME280;30542;47.928;2.138;2023-08-08T06:52:09;100688.16;;;21.96;49.75
44825;BME280;30542;47.928;2.138;2023-08-08T06:57:09;100676.63;;;21.96;49.61
44825;BME280;30542;47.928;2.138;2023-08-08T07:02:09;100680.41;;;21.95;49.72
44825;BME280;30542;47.928;2.138;2023-08-08T07:07:10;100676.63;;;21.96;49.61
44825;BME280;30542;47.928;2.138;2023-08-08T07:12:10;100689.75;;;21.97;49.81
44825;BME280;30542;47.928;2.138;2023-08-08T07:17:11;100675.56;;;21.97;49.61
44825;BME280;30542;47.928;2.138;2023-08-08T07:22:11;100678.78;;;21.99;49.73
44825;BME280;30542;47.928;2.138;2023-08-08T07:27:11;100683.34;;;21.98;49.69
44825;BME280;30542;47.928;2.138;2023-08-08T07:32:12;100672.59;;;21.93;49.56
44825;BME280;30542;47.928;2.138;2023-08-08T07:37:14;100679.84;;;21.98;49.41
44825;BME280;30542;47.928;2.138;2023-08-08T07:42:14;100694.59;;;22.00;49.26
44825;BME280;30542;47.928;2.138;2023-08-08T07:47:14;100687.34;;;22.01;49.50
44825;BME280;30542;47.928;2.138;2023-08-08T07:52:15;100672.88;;;22.02;49.31
44825;BME280;30542;47.928;2.138;2023-08-08T07:57:15;100661.09;;;22.03;49.33
44825;BME280;30542;47.928;2.138;2023-08-08T08:02:15;100660.00;;;22.04;49.13
44825;BME280;30542;47.928;2.138;2023-08-08T08:07:16;100652.75;;;22.04;49.34
44825;BME280;30542;47.928;2.138;2023-08-08T08:12:16;100639.06;;;22.06;49.33
44825;BME280;30542;47.928;2.138;2023-08-08T08:17:16;100639.91;;;22.06;49.56
44825;BME280;30542;47.928;2.138;2023-08-08T08:22:17;100647.94;;;22.06;49.77
44825;BME280;30542;47.928;2.138;2023-08-08T08:27:17;100639.06;;;22.06;49.88
44825;BME280;30542;47.928;2.138;2023-08-08T08:32:18;100643.38;;;22.07;50.08
44825;BME280;30542;47.928;2.138;2023-08-08T08:37:18;100651.44;;;22.07;50.03
44825;BME280;30542;47.928;2.138;2023-08-08T08:42:18;100651.16;;;22.08;50.16
44825;BME280;30542;47.928;2.138;2023-08-08T08:47:20;100663.22;;;22.11;50.05
44825;BME280;30542;47.928;2.138;2023-08-08T08:52:21;100650.06;;;22.09;50.21
44825;BME280;30542;47.928;2.138;2023-08-08T08:57:23;100661.66;;;22.15;49.95
44825;BME280;30542;47.928;2.138;2023-08-08T09:02:23;100662.97;;;22.18;49.83
44825;BME280;30542;47.928;2.138;2023-08-08T09:07:28;100650.63;;;22.17;49.76
44825;BME280;30542;47.928;2.138;2023-08-08T09:12:31;100645.53;;;22.20;49.70
44825;BME280;30542;47.928;2.138;2023-08-08T09:17:31;100652.50;;;22.21;49.80
44825;BME280;30542;47.928;2.138;2023-08-08T09:22:32;100655.72;;;22.23;49.44
44825;BME280;30542;47.928;2.138;2023-08-08T09:27:32;100650.88;;;22.25;49.57
44825;BME280;30542;47.928;2.138;2023-08-08T09:32:32;100643.63;;;22.26;49.46
44825;BME280;30542;47.928;2.138;2023-08-08T09:37:33;100639.88;;;22.27;49.40
44825;BME280;30542;47.928;2.138;2023-08-08T09:42:34;100639.88;;;22.27;49.30
44825;BME280;30542;47.928;2.138;2023-08-08T09:47:35;100647.91;;;22.27;49.42
44825;BME280;30542;47.928;2.138;2023-08-08T09:52:37;100636.66;;;22.25;49.33
44825;BME280;30542;47.928;2.138;2023-08-08T09:57:39;100638.28;;;22.26;49.28
44825;BME280;30542;47.928;2.138;2023-08-08T10:02:40;100644.19;;;22.28;49.29
44825;BME280;30542;47.928;2.138;2023-08-08T10:07:41;100632.38;;;22.24;49.34
44825;BME280;30542;47.928;2.138;2023-08-08T10:12:42;100646.59;;;22.29;49.21
44825;BME280;30542;47.928;2.138;2023-08-08T10:17:42;100642.03;;;22.30;49.11
44825;BME280;30542;47.928;2.138;2023-08-08T10:22:45;100634.50;;;22.27;49.28
44825;BME280;30542;47.928;2.138;2023-08-08T10:27:46;100639.88;;;22.32;49.29
44825;BME280;30542;47.928;2.138;2023-08-08T10:32:50;100632.63;;;22.32;49.19
44825;BME280;30542;47.928;2.138;2023-08-08T10:37:54;100628.88;;;22.33;49.25
44825;BME280;30542;47.928;2.138;2023-08-08T10:42:54;100633.44;;;22.33;49.24
44825;BME280;30542;47.928;2.138;2023-08-08T10:47:55;100631.25;;;22.35;49.20
44825;BME280;30542;47.928;2.138;2023-08-08T10:52:55;100625.09;;;22.34;49.10
44825;BME280;30542;47.928;2.138;2023-08-08T11:03:05;100624.59;;;22.32;48.97
44825;BME280;30542;47.928;2.138;2023-08-08T11:08:06;100613.56;;;22.34;49.02
44825;BME280;30542;47.928;2.138;2023-08-08T11:13:07;100627.53;;;22.36;49.15
44825;BME280;30542;47.928;2.138;2023-08-08T11:18:08;100619.47;;;22.36;49.23
44825;BME280;30542;47.928;2.138;2023-08-08T11:23:10;100612.22;;;22.37;49.02
44825;BME280;30542;47.928;2.138;2023-08-08T11:28:12;100609.53;;;22.37;49.01
44825;BME280;30542;47.928;2.138;2023-08-08T11:33:14;100592.09;;;22.34;49.02
44825;BME280;30542;47.928;2.138;2023-08-08T11:38:16;100587.28;;;22.36;48.78
44825;BME280;30542;47.928;2.138;2023-08-08T11:43:17;100589.97;;;22.36;48.84
44825;BME280;30542;47.928;2.138;2023-08-08T11:48:20;100581.91;;;22.36;48.70
44825;BME280;30542;47.928;2.138;2023-08-08T11:53:22;100577.59;;;22.35;48.76
44825;BME280;30542;47.928;2.138;2023-08-08T11:58:26;100588.34;;;22.35;48.78
44825;BME280;30542;47.928;2.138;2023-08-08T12:03:26;100593.16;;;22.38;49.13
44825;BME280;30542;47.928;2.138;2023-08-08T12:08:30;100583.78;;;22.36;48.88
44825;BME280;30542;47.928;2.138;2023-08-08T12:13:30;100581.63;;;22.38;48.85
44825;BME280;30542;47.928;2.138;2023-08-08T12:18:31;100567.41;;;22.37;48.81
44825;BME280;30542;47.928;2.138;2023-08-08T12:23:33;100582.44;;;22.38;48.73
44825;BME280;30542;47.928;2.138;2023-08-08T12:28:33;100577.06;;;22.38;48.67
44825;BME280;30542;47.928;2.138;2023-08-08T12:33:34;100578.94;;;22.38;48.79
44825;BME280;30542;47.928;2.138;2023-08-08T12:38:35;100566.31;;;22.38;48.66
44825;BME280;30542;47.928;2.138;2023-08-08T12:43:35;100558.28;;;22.38;48.87
44825;BME280;30542;47.928;2.138;2023-08-08T12:48:35;100548.91;;;22.36;48.74
44825;BME280;30542;47.928;2.138;2023-08-08T12:53:36;100545.66;;;22.39;48.72
44825;BME280;30542;47.928;2.138;2023-08-08T12:58:36;100527.66;;;22.39;48.59
44825;BME280;30542;47.928;2.138;2023-08-08T13:03:36;100531.97;;;22.40;48.62
44825;BME280;30542;47.928;2.138;2023-08-08T13:08:37;100531.97;;;22.40;48.56
44825;BME280;30542;47.928;2.138;2023-08-08T13:13:38;100526.59;;;22.40;48.54
44825;BME280;30542;47.928;2.138;2023-08-08T13:18:38;100530.88;;;22.41;48.20
44825;BME280;30542;47.928;2.138;2023-08-08T13:23:38;100533.56;;;22.41;48.49
44825;BME280;30542;47.928;2.138;2023-08-08T13:28:39;100527.41;;;22.41;48.52
44825;BME280;30542;47.928;2.138;2023-08-08T13:33:39;100533.56;;;22.41;48.70
44825;BME280;30542;47.928;2.138;2023-08-08T13:38:39;100524.44;;;22.42;48.58
44825;BME280;30542;47.928;2.138;2023-08-08T13:43:40;100517.97;;;22.43;48.62
44825;BME280;30542;47.928;2.138;2023-08-08T13:48:40;100519.06;;;22.42;48.53
44825;BME280;30542;47.928;2.138;2023-08-08T13:53:40;100509.13;;;22.43;48.68
44825;BME280;30542;47.928;2.138;2023-08-08T13:58:41;100499.19;;;22.43;48.57
44825;BME280;30542;47.928;2.138;2023-08-08T14:03:41;100485.53;;;22.45;48.76
44825;BME280;30542;47.928;2.138;2023-08-08T14:08:41;100507.00;;;22.45;48.55
44825;BME280;30542;47.928;2.138;2023-08-08T14:13:42;100493.56;;;22.45;48.58
44825;BME280;30542;47.928;2.138;2023-08-08T14:18:42;100482.84;;;22.45;48.51
44825;BME280;30542;47.928;2.138;2023-08-08T14:23:42;100476.66;;;22.44;48.71
44825;BME280;30542;47.928;2.138;2023-08-08T14:28:44;100486.31;;;22.45;48.51
44825;BME280;30542;47.928;2.138;2023-08-08T14:33:44;100486.31;;;22.45;48.59
44825;BME280;30542;47.928;2.138;2023-08-08T14:38:44;100491.69;;;22.45;48.75
44825;BME280;30542;47.928;2.138;2023-08-08T14:43:45;100493.28;;;22.46;48.63
44825;BME280;30542;47.928;2.138;2023-08-08T14:48:45;100494.09;;;22.47;48.40
44825;BME280;30542;47.928;2.138;2023-08-08T14:53:45;100486.84;;;22.47;48.24
44825;BME280;30542;47.928;2.138;2023-08-08T14:58:46;100479.59;;;22.48;48.40
44825;BME280;30542;47.928;2.138;2023-08-08T15:03:46;100473.41;;;22.47;48.42
44825;BME280;30542;47.928;2.138;2023-08-08T15:08:46;100476.63;;;22.49;48.18
44825;BME280;30542;47.928;2.138;2023-08-08T15:13:49;100477.44;;;22.50;48.41
44825;BME280;30542;47.928;2.138;2023-08-08T15:18:50;100478.22;;;22.50;48.41
44825;BME280;30542;47.928;2.138;2023-08-08T15:23:50;100475.53;;;22.50;48.13
44825;BME280;30542;47.928;2.138;2023-08-08T15:28:51;100481.72;;;22.51;48.23
44825;BME280;30542;47.928;2.138;2023-08-08T15:33:51;100484.41;;;22.51;48.24
44825;BME280;30542;47.928;2.138;2023-08-08T15:38:51;100479.31;;;22.49;48.29
44825;BME280;30542;47.928;2.138;2023-08-08T15:43:52;100479.84;;;22.51;48.22
44825;BME280;30542;47.928;2.138;2023-08-08T15:48:52;100474.47;;;22.51;48.03
44825;BME280;30542;47.928;2.138;2023-08-08T15:53:52;100473.91;;;22.54;47.91
44825;BME280;30542;47.928;2.138;2023-08-08T15:58:53;100465.56;;;22.56;46.83
44825;BME280;30542;47.928;2.138;2023-08-08T16:03:53;100456.72;;;22.55;45.90
44825;BME280;30542;47.928;2.138;2023-08-08T16:08:53;100447.88;;;22.55;45.34
44825;BME280;30542;47.928;2.138;2023-08-08T16:13:54;100444.88;;;22.62;44.93
44825;BME280;30542;47.928;2.138;2023-08-08T16:18:54;100449.97;;;22.63;44.64
44825;BME280;30542;47.928;2.138;2023-08-08T16:23:54;100436.78;;;22.67;44.49
44825;BME280;30542;47.928;2.138;2023-08-08T16:28:55;100431.13;;;22.68;44.28
44825;BME280;30542;47.928;2.138;2023-08-08T16:33:56;100445.91;;;22.71;44.13
44825;BME280;30542;47.928;2.138;2023-08-08T16:38:56;100433.00;;;22.73;43.94
44825;BME280;30542;47.928;2.138;2023-08-08T16:44:04;100433.53;;;22.75;43.93
44825;BME280;30542;47.928;2.138;2023-08-08T16:49:04;100442.13;;;22.77;43.79
44825;BME280;30542;47.928;2.138;2023-08-08T16:54:07;100429.47;;;22.77;44.07
44825;BME280;30542;47.928;2.138;2023-08-08T16:59:07;100422.50;;;22.76;43.65
44825;BME280;30542;47.928;2.138;2023-08-08T17:04:09;100410.94;;;22.76;44.06
44825;BME280;30542;47.928;2.138;2023-08-08T17:09:10;100422.19;;;22.83;43.68
44825;BME280;30542;47.928;2.138;2023-08-08T17:14:12;100421.63;;;22.86;43.84
44825;BME280;30542;47.928;2.138;2023-08-08T17:19:12;100403.63;;;22.87;43.93
44825;BME280;30542;47.928;2.138;2023-08-08T17:24:13;100404.16;;;22.94;44.12
44825;BME280;30542;47.928;2.138;2023-08-08T17:29:13;100416.72;;;22.98;43.93
44825;BME280;30542;47.928;2.138;2023-08-08T17:34:13;100425.28;;;23.00;44.09
44825;BME280;30542;47.928;2.138;2023-08-08T17:39:14;100433.59;;;23.04;43.51
44825;BME280;30542;47.928;2.138;2023-08-08T17:44:14;100430.34;;;23.07;43.25
44825;BME280;30542;47.928;2.138;2023-08-08T17:49:14;100431.66;;;23.10;43.26
44825;BME280;30542;47.928;2.138;2023-08-08T17:54:15;100431.66;;;23.10;42.83
44825;BME280;30542;47.928;2.138;2023-08-08T17:59:15;100419.84;;;23.11;43.06
44825;BME280;30542;47.928;2.138;2023-08-08T18:04:16;100410.47;;;23.08;42.54
44825;BME280;30542;47.928;2.138;2023-08-08T18:09:16;100425.78;;;23.07;42.78
44825;BME280;30542;47.928;2.138;2023-08-08T18:14:17;100417.19;;;23.05;42.78
44825;BME280;30542;47.928;2.138;2023-08-08T18:19:17;100444.06;;;23.05;42.94
44825;BME280;30542;47.928;2.138;2023-08-08T18:24:18;100430.91;;;23.04;43.04
44825;BME280;30542;47.928;2.138;2023-08-08T18:29:19;100433.31;;;23.05;43.19
44825;BME280;30542;47.928;2.138;2023-08-08T18:34:19;100433.03;;;23.07;43.45
44825;BME280;30542;47.928;2.138;2023-08-08T18:39:19;100418.81;;;23.06;43.59
44825;BME280;30542;47.928;2.138;2023-08-08T18:44:21;100417.72;;;23.07;43.48
44825;BME280;30542;47.928;2.138;2023-08-08T18:49:22;100426.06;;;23.06;43.68
44825;BME280;30542;47.928;2.138;2023-08-08T18:54:22;100434.41;;;23.04;43.94
44825;BME280;30542;47.928;2.138;2023-08-08T18:59:22;100450.75;;;23.08;43.83
44825;BME280;30542;47.928;2.138;2023-08-08T19:04:23;100444.28;;;23.09;44.36
44825;BME280;30542;47.928;2.138;2023-08-08T19:09:23;100445.69;;;23.06;44.33
44825;BME280;30542;47.928;2.138;2023-08-08T19:14:23;100471.75;;;23.06;44.65
44825;BME280;30542;47.928;2.138;2023-08-08T19:19:24;100454.00;;;23.05;44.86
44825;BME280;30542;47.928;2.138;2023-08-08T19:24:24;100472.00;;;23.04;45.09
44825;BME280;30542;47.928;2.138;2023-08-08T19:29:24;100465.03;;;23.03;45.14
44825;BME280;30542;47.928;2.138;2023-08-08T19:34:25;100445.94;;;23.05;45.11
44825;BME280;30542;47.928;2.138;2023-08-08T19:39:25;100438.16;;;23.03;45.01
44825;BME280;30542;47.928;2.138;2023-08-08T19:44:26;100430.91;;;23.04;45.22
44825;BME280;30542;47.928;2.138;2023-08-08T19:49:26;100419.88;;;23.05;45.15
44825;BME280;30542;47.928;2.138;2023-08-08T19:54:27;100432.81;;;23.03;45.56
44825;BME280;30542;47.928;2.138;2023-08-08T19:59:27;100434.41;;;23.04;46.49
44825;BME280;30542;47.928;2.138;2023-08-08T20:04:28;100427.94;;;23.05;46.90
44825;BME280;30542;47.928;2.138;2023-08-08T20:09:28;100418.81;;;23.06;47.47
44825;BME280;30542;47.928;2.138;2023-08-08T20:14:28;100424.19;;;23.06;47.50
44825;BME280;30542;47.928;2.138;2023-08-08T20:19:30;100420.91;;;23.10;48.00
44825;BME280;30542;47.928;2.138;2023-08-08T20:24:31;100426.56;;;23.08;47.49
44825;BME280;30542;47.928;2.138;2023-08-08T20:29:31;100436.25;;;23.09;47.36
44825;BME280;30542;47.928;2.138;2023-08-08T20:34:32;100423.88;;;23.08;48.06
44825;BME280;30542;47.928;2.138;2023-08-08T20:39:32;100417.16;;;23.11;47.61
44825;BME280;30542;47.928;2.138;2023-08-08T20:44:32;100401.84;;;23.11;47.59
44825;BME280;30542;47.928;2.138;2023-08-08T20:49:33;100394.03;;;23.10;47.43
44825;BME280;30542;47.928;2.138;2023-08-08T20:54:33;100404.22;;;23.13;47.50
44825;BME280;30542;47.928;2.138;2023-08-08T20:59:33;100402.63;;;23.12;47.44
44825;BME280;30542;47.928;2.138;2023-08-08T21:04:34;100408.81;;;23.12;47.89
44825;BME280;30542;47.928;2.138;2023-08-08T21:09:34;100410.69;;;23.12;47.77
44825;BME280;30542;47.928;2.138;2023-08-08T21:14:34;100418.75;;;23.12;47.34
44825;BME280;30542;47.928;2.138;2023-08-08T21:19:35;100424.94;;;23.12;47.30
44825;BME280;30542;47.928;2.138;2023-08-08T21:24:35;100442.94;;;23.12;47.75
44825;BME280;30542;47.928;2.138;2023-08-08T21:29:35;100434.88;;;23.12;47.46
44825;BME280;30542;47.928;2.138;2023-08-08T21:34:36;100421.44;;;23.12;47.44
44825;BME280;30542;47.928;2.138;2023-08-08T21:39:36;100432.19;;;23.12;47.69
44825;BME280;30542;47.928;2.138;2023-08-08T21:44:36;100447.22;;;23.13;47.12
44825;BME280;30542;47.928;2.138;2023-08-08T21:49:36;100429.50;;;23.12;47.58
44825;BME280;30542;47.928;2.138;2023-08-08T21:54:37;100439.47;;;23.11;47.70
44825;BME280;30542;47.928;2.138;2023-08-08T21:59:37;100445.63;;;23.12;47.51
44825;BME280;30542;47.928;2.138;2023-08-08T22:04:38;100452.88;;;23.11;47.28
44825;BME280;30542;47.928;2.138;2023-08-08T22:09:38;100464.16;;;23.13;47.30
44825;BME280;30542;47.928;2.138;2023-08-08T22:14:39;100461.47;;;23.13;47.49
44825;BME280;30542;47.928;2.138;2023-08-08T22:19:39;100452.59;;;23.13;47.56
44825;BME280;30542;47.928;2.138;2023-08-08T22:24:40;100463.09;;;23.14;47.89
44825;BME280;30542;47.928;2.138;2023-08-08T22:29:40;100455.81;;;23.15;47.89
44825;BME280;30542;47.928;2.138;2023-08-08T22:34:40;100462.78;;;23.16;47.80
44825;BME280;30542;47.928;2.138;2023-08-08T22:39:41;100453.13;;;23.15;47.61
44825;BME280;30542;47.928;2.138;2023-08-08T22:44:41;100442.38;;;23.15;47.61
44825;BME280;30542;47.928;2.138;2023-08-08T22:49:41;100451.25;;;23.15;47.63
44825;BME280;30542;47.928;2.138;2023-08-08T22:54:42;100441.28;;;23.16;47.75
44825;BME280;30542;47.928;2.138;2023-08-08T22:59:43;100445.06;;;23.15;47.67
44825;BME280;30542;47.928;2.138;2023-08-08T23:04:43;100454.50;;;23.12;47.50
44825;BME280;30542;47.928;2.138;2023-08-08T23:09:43;100450.22;;;23.11;47.65
44825;BME280;30542;47.928;2.138;2023-08-08T23:14:44;100447.56;;;23.06;47.66
44825;BME280;30542;47.928;2.138;2023-08-08T23:19:44;100448.88;;;23.08;47.74
44825;BME280;30542;47.928;2.138;2023-08-08T23:24:44;100446.47;;;23.07;47.89
44825;BME280;30542;47.928;2.138;2023-08-08T23:29:45;100441.09;;;23.07;47.84
44825;BME280;30542;47.928;2.138;2023-08-08T23:34:45;100418.03;;;23.01;47.72
44825;BME280;30542;47.928;2.138;2023-08-08T23:39:45;100425.25;;;23.05;47.85
44825;BME280;30542;47.928;2.138;2023-08-08T23:44:46;100433.84;;;23.07;47.81
44825;BME280;30542;47.928;2.138;2023-08-08T23:49:46;100436.00;;;23.05;48.10
44825;BME280;30542;47.928;2.138;2023-08-08T23:54:46;100426.88;;;23.06;48.25
44825;BME280;30542;47.928;2.138;2023-08-08T23:59:47;100443.00;;;23.06;48.37
